Time;durP1;ratioP1;P1;durP2;ratioP2;P2;SDS_P1;SDS_P2;PMS_P1;PMS_P2;Temp;Humidity;BMP_temperature;BMP_pressure;BME280_temperature;BME280_humidity;BME280_pressure;Samples;Min_cycle;Max_cycle;Signal;HPM_P1;HPM_P2
2023/09/15 00:00:20;;;;;;;10.45;8.18;;;15.30;99.70;;;;;;6152497;23;20025;-77
2023/09/15 00:02:47;;;;;;;9.40;8.45;;;15.30;99.70;;;;;;6152954;23;20444;-77
2023/09/15 00:05:13;;;;;;;10.63;9.40;;;15.20;99.90;;;;;;6125715;23;20009;-77
2023/09/15 00:07:39;;;;;;;11.13;9.00;;;15.20;99.80;;;;;;6152758;23;20436;-77
2023/09/15 00:10:06;;;;;;;12.60;9.50;;;15.20;99.70;;;;;;6152182;23;20005;-77
2023/09/15 00:12:32;;;;;;;10.27;8.95;;;15.20;99.80;;;;;;6152627;23;20037;-77
2023/09/15 00:14:58;;;;;;;11.70;9.07;;;15.20;99.80;;;;;;6152643;23;20064;-77
2023/09/15 00:17:25;;;;;;;16.70;9.15;;;15.20;99.80;;;;;;6152445;23;20006;-77
2023/09/15 00:19:51;;;;;;;10.38;7.15;;;15.20;99.90;;;;;;6152258;23;20344;-77
2023/09/15 00:22:16;;;;;;;12.40;8.48;;;15.10;99.90;;;;;;6152432;23;20002;-77
2023/09/15 00:24:42;;;;;;;11.75;8.18;;;15.10;99.90;;;;;;6152302;23;20113;-77
2023/09/15 00:27:09;;;;;;;8.73;7.82;;;15.10;99.90;;;;;;6152408;23;20296;-77
2023/09/15 00:29:35;;;;;;;8.25;7.13;;;15.10;99.90;;;;;;6152430;23;20001;-77
2023/09/15 00:32:01;;;;;;;12.93;8.35;;;15.00;99.90;;;;;;6152357;23;20005;-77
2023/09/15 00:34:26;;;;;;;11.48;8.73;;;15.00;99.90;;;;;;6151927;23;20412;-77
2023/09/15 00:36:52;;;;;;;9.82;8.50;;;15.00;99.90;;;;;;6152665;23;20483;-78
2023/09/15 00:39:18;;;;;;;13.30;8.10;;;15.00;99.90;;;;;;6152033;23;20013;-77
2023/09/15 00:41:43;;;;;;;10.57;7.35;;;15.00;99.90;;;;;;6152403;23;20143;-77
2023/09/15 00:44:09;;;;;;;12.27;8.50;;;15.00;99.90;;;;;;6151716;23;20016;-77
2023/09/15 00:46:35;;;;;;;9.02;7.80;;;15.00;99.90;;;;;;6152316;23;20097;-77
2023/09/15 00:49:01;;;;;;;11.57;8.18;;;14.90;99.90;;;;;;6125531;23;20089;-77
2023/09/15 00:51:27;;;;;;;9.68;6.93;;;14.90;99.90;;;;;;6126005;23;20060;-77
2023/09/15 00:53:55;;;;;;;8.55;7.55;;;14.90;99.90;;;;;;6152283;23;20005;-77
2023/09/15 00:56:21;;;;;;;9.55;7.68;;;14.90;99.90;;;;;;6151884;23;19997;-76
2023/09/15 00:58:46;;;;;;;9.23;7.65;;;14.80;99.90;;;;;;6152184;23;20005;-77
2023/09/15 01:01:13;;;;;;;9.15;8.05;;;14.90;99.90;;;;;;6152100;23;20021;-77
2023/09/15 01:03:42;;;;;;;7.97;6.55;;;14.80;99.90;;;;;;6151519;23;20170;-77
2023/09/15 01:06:11;;;;;;;11.52;7.70;;;14.80;99.90;;;;;;6151976;23;20009;-77
2023/09/15 01:08:37;;;;;;;8.18;6.90;;;14.80;99.90;;;;;;6151820;23;20052;-76
2023/09/15 01:11:04;;;;;;;11.00;8.40;;;14.80;99.90;;;;;;6125690;23;20088;-77
2023/09/15 01:13:34;;;;;;;15.55;8.35;;;14.80;99.90;;;;;;6125630;23;20013;-77
2023/09/15 01:16:33;;;;;;;14.23;7.22;;;14.80;99.90;;;;;;6151765;23;20063;-77
2023/09/15 01:19:16;;;;;;;8.40;6.93;;;14.80;99.90;;;;;;6151840;23;20001;-77
2023/09/15 01:21:54;;;;;;;8.98;7.07;;;14.70;99.90;;;;;;6151884;23;20080;-76
2023/09/15 01:24:38;;;;;;;8.50;7.30;;;14.70;99.90;;;;;;6125250;23;20005;-77
2023/09/15 01:27:12;;;;;;;;;;;14.60;99.90;;;;;;6152159;23;19997;-77
2023/09/15 01:29:47;;;;;;;;;;;14.60;99.90;;;;;;6152151;23;20358;-77
2023/09/15 01:32:14;;;;;;;;;;;14.60;99.90;;;;;;6151512;23;19909;-77
2023/09/15 01:34:46;;;;;;;7.43;6.03;;;14.50;99.90;;;;;;6151700;23;19908;-77
2023/09/15 01:37:12;;;;;;;13.15;8.15;;;14.50;99.90;;;;;;6125463;23;20489;-76
2023/09/15 01:39:38;;;;;;;8.32;6.85;;;14.50;99.90;;;;;;6125455;23;20002;-77
2023/09/15 01:42:03;;;;;;;12.35;6.80;;;14.50;99.90;;;;;;6151631;23;20064;-76
2023/09/15 01:44:29;;;;;;;11.73;8.13;;;14.50;99.90;;;;;;6140017;23;20017;-77
2023/09/15 01:46:55;;;;;;;8.93;7.63;;;14.50;99.90;;;;;;6179759;23;20012;-77
2023/09/15 01:49:21;;;;;;;7.43;6.57;;;14.50;99.90;;;;;;6181055;23;20075;-78
2023/09/15 01:51:48;;;;;;;8.55;7.63;;;14.50;99.90;;;;;;6181544;23;20005;-78
2023/09/15 01:54:15;;;;;;;7.25;6.43;;;14.50;99.90;;;;;;6181154;23;20005;-77
2023/09/15 01:56:41;;;;;;;8.23;6.15;;;14.50;99.90;;;;;;6181149;23;20008;-77
2023/09/15 01:59:06;;;;;;;10.02;7.70;;;14.40;99.90;;;;;;6181159;23;20001;-76
2023/09/15 02:01:32;;;;;;;10.23;8.30;;;14.40;99.90;;;;;;6180532;23;20001;-77
2023/09/15 02:03:57;;;;;;;7.82;7.00;;;14.40;99.90;;;;;;6181478;23;20013;-77
2023/09/15 02:06:23;;;;;;;10.65;8.32;;;14.30;99.90;;;;;;6180896;23;20001;-76
2023/09/15 02:08:49;;;;;;;9.13;7.20;;;14.30;99.90;;;;;;6181371;23;20012;-77
2023/09/15 02:11:15;;;;;;;8.13;6.75;;;14.40;99.90;;;;;;6180988;23;20008;-77
2023/09/15 02:13:41;;;;;;;10.90;8.43;;;14.30;99.90;;;;;;6180800;23;20139;-76
2023/09/15 02:16:07;;;;;;;11.98;8.07;;;14.40;99.90;;;;;;6153725;23;20009;-77
2023/09/15 02:18:33;;;;;;;8.90;7.97;;;14.30;99.90;;;;;;6180981;23;20445;-76
2023/09/15 02:20:58;;;;;;;10.05;7.50;;;14.30;99.90;;;;;;6181146;23;20001;-76
2023/09/15 02:23:24;;;;;;;9.85;7.43;;;14.30;99.90;;;;;;6180758;23;20436;-76
2023/09/15 02:25:51;;;;;;;9.02;7.32;;;14.30;99.90;;;;;;6181471;23;20009;-77
2023/09/15 02:28:19;;;;;;;8.23;7.32;;;14.20;99.90;;;;;;6181093;23;20407;-77
2023/09/15 02:30:44;;;;;;;8.52;7.60;;;14.20;99.90;;;;;;6180526;23;20331;-77
2023/09/15 02:33:10;;;;;;;8.43;7.63;;;14.20;99.90;;;;;;6180849;23;20001;-77
2023/09/15 02:35:36;;;;;;;10.48;8.82;;;14.20;99.90;;;;;;6181227;23;20005;-77
2023/09/15 02:38:02;;;;;;;9.43;7.68;;;14.20;99.90;;;;;;6180824;23;19997;-77
2023/09/15 02:40:28;;;;;;;14.60;9.10;;;14.20;99.90;;;;;;6180964;23;20001;-76
2023/09/15 02:42:53;;;;;;;12.35;7.82;;;14.10;99.90;;;;;;6181536;23;20068;-77
2023/09/15 02:45:19;;;;;;;12.25;7.82;;;14.10;99.90;;;;;;6154797;23;20014;-77
2023/09/15 02:47:45;;;;;;;8.75;7.90;;;14.10;99.90;;;;;;6151440;23;20052;-77
2023/09/15 02:50:10;;;;;;;12.02;9.13;;;14.10;99.90;;;;;;6150832;23;20005;-77
2023/09/15 02:52:36;;;;;;;9.95;9.00;;;14.10;99.90;;;;;;6151402;23;20041;-77
2023/09/15 02:55:04;;;;;;;10.55;7.90;;;14.10;99.90;;;;;;6150978;23;20005;-77
2023/09/15 02:57:29;;;;;;;11.43;7.40;;;14.00;99.90;;;;;;6151246;23;20068;-77
2023/09/15 02:59:55;;;;;;;12.95;9.32;;;14.00;99.90;;;;;;6150654;23;20432;-77
2023/09/15 03:02:21;;;;;;;10.98;8.88;;;14.00;99.90;;;;;;6150812;23;20735;-77
2023/09/15 03:04:47;;;;;;;10.55;9.45;;;13.90;99.90;;;;;;6151610;23;20036;-77
2023/09/15 03:07:13;;;;;;;9.65;7.78;;;13.90;99.90;;;;;;6150770;23;20001;-77
2023/09/15 03:09:39;;;;;;;10.63;9.50;;;13.90;99.90;;;;;;6150914;23;20009;-77
2023/09/15 03:12:05;;;;;;;11.80;8.02;;;13.90;99.90;;;;;;6150935;23;20010;-77
2023/09/15 03:14:31;;;;;;;8.65;7.75;;;13.90;99.90;;;;;;6151469;23;20056;-77
2023/09/15 03:16:56;;;;;;;11.13;7.93;;;13.90;99.90;;;;;;6153279;23;20068;-77
2023/09/15 03:19:22;;;;;;;12.00;7.88;;;13.80;99.90;;;;;;6152619;23;20014;-76
2023/09/15 03:21:48;;;;;;;13.70;8.30;;;13.80;99.90;;;;;;6153412;23;20008;-77
2023/09/15 03:24:14;;;;;;;9.00;7.55;;;13.80;99.90;;;;;;6152810;23;20452;-76
2023/09/15 03:26:40;;;;;;;10.48;9.35;;;13.80;99.90;;;;;;6153188;23;20072;-77
2023/09/15 03:29:06;;;;;;;8.93;8.02;;;13.80;99.90;;;;;;6152153;23;20438;-77
2023/09/15 03:31:31;;;;;;;10.55;8.40;;;13.70;99.90;;;;;;6153045;23;19998;-77
2023/09/15 03:33:57;;;;;;;9.88;7.60;;;13.70;99.90;;;;;;6153120;23;20009;-77
2023/09/15 03:36:25;;;;;;;9.90;7.90;;;13.70;99.90;;;;;;6152579;23;20006;-78
2023/09/15 03:38:52;;;;;;;9.30;6.80;;;13.70;99.90;;;;;;6152967;23;20010;-77
2023/09/15 03:41:17;;;;;;;9.40;8.02;;;13.70;99.90;;;;;;6152793;23;20009;-77
2023/09/15 03:43:43;;;;;;;11.20;7.93;;;13.60;99.90;;;;;;6152011;23;20013;-76
2023/09/15 03:46:08;;;;;;;10.38;9.13;;;13.60;99.90;;;;;;6152847;23;20001;-77
2023/09/15 03:48:34;;;;;;;11.90;9.20;;;13.60;99.90;;;;;;6152782;23;20033;-77
2023/09/15 03:51:00;;;;;;;10.25;8.50;;;13.50;99.90;;;;;;6152901;23;20002;-76
2023/09/15 03:53:25;;;;;;;14.90;9.30;;;13.50;99.90;;;;;;6152461;23;20332;-76
2023/09/15 03:55:51;;;;;;;16.77;11.05;;;13.50;99.90;;;;;;6126589;23;20397;-77
2023/09/15 03:58:17;;;;;;;12.20;8.80;;;13.50;99.90;;;;;;6152394;23;20036;-77
2023/09/15 04:00:43;;;;;;;10.45;9.35;;;13.50;99.90;;;;;;6152754;23;20002;-77
2023/09/15 04:03:09;;;;;;;9.32;7.75;;;13.50;99.90;;;;;;6152528;23;20673;-77
2023/09/15 04:05:34;;;;;;;12.32;9.15;;;13.50;99.90;;;;;;6152689;23;20005;-76
2023/09/15 04:08:00;;;;;;;9.90;8.77;;;13.50;99.90;;;;;;6152431;23;20013;-76
2023/09/15 04:10:26;;;;;;;11.70;8.07;;;13.40;99.90;;;;;;6151974;23;20008;-76
2023/09/15 04:12:51;;;;;;;12.57;8.32;;;13.40;99.90;;;;;;6152883;23;20016;-77
2023/09/15 04:15:17;;;;;;;11.88;8.48;;;13.40;99.90;;;;;;6152385;23;20005;-76
2023/09/15 04:17:43;;;;;;;10.13;8.88;;;13.40;99.90;;;;;;6152234;23;20002;-77
2023/09/15 04:20:10;;;;;;;9.70;8.70;;;13.40;99.90;;;;;;6152648;23;20005;-76
2023/09/15 04:22:40;;;;;;;10.93;8.05;;;13.40;99.90;;;;;;6152534;23;20005;-77
2023/09/15 04:25:07;;;;;;;9.50;8.55;;;13.40;99.90;;;;;;6151792;23;20002;-77
2023/09/15 04:27:33;;;;;;;9.55;8.27;;;13.40;99.90;;;;;;6152275;23;20008;-76
2023/09/15 04:30:00;;;;;;;10.10;8.32;;;13.30;99.90;;;;;;6152587;23;20072;-77
2023/09/15 04:32:26;;;;;;;11.13;9.13;;;13.30;99.90;;;;;;6125783;23;20345;-77
2023/09/15 04:34:52;;;;;;;14.60;8.73;;;13.30;99.90;;;;;;6126519;23;20001;-77
2023/09/15 04:37:19;;;;;;;9.93;8.05;;;13.30;99.90;;;;;;6152047;23;20431;-77
2023/09/15 04:39:45;;;;;;;10.73;8.00;;;13.20;99.90;;;;;;6152161;23;20077;-77
2023/09/15 04:42:12;;;;;;;9.10;8.15;;;13.20;99.90;;;;;;6125821;23;20033;-77
2023/09/15 04:44:37;;;;;;;9.52;8.05;;;13.20;99.90;;;;;;6152299;23;20352;-77
2023/09/15 04:47:04;;;;;;;9.23;7.57;;;13.20;99.90;;;;;;6149894;23;20001;-77
2023/09/15 04:49:29;;;;;;;8.82;7.93;;;13.20;99.90;;;;;;6125495;23;20009;-78
2023/09/15 04:51:55;;;;;;;10.30;8.75;;;13.20;99.90;;;;;;6150357;23;20001;-78
2023/09/15 04:54:21;;;;;;;11.48;9.15;;;13.10;99.90;;;;;;6150055;23;20029;-77
2023/09/15 04:56:46;;;;;;;12.07;9.60;;;13.10;99.90;;;;;;6152320;23;20072;-77
2023/09/15 04:59:19;;;;;;;11.63;8.25;;;13.10;99.90;;;;;;6151998;23;20462;-77
2023/09/15 05:01:45;;;;;;;8.57;7.68;;;13.10;99.90;;;;;;6126216;23;20005;-78
2023/09/15 05:04:11;;;;;;;11.13;7.40;;;13.10;99.90;;;;;;6125855;23;20009;-78
2023/09/15 05:06:37;;;;;;;13.05;8.30;;;13.10;99.90;;;;;;6152049;23;20006;-77
2023/09/15 05:09:10;;;;;;;14.20;9.10;;;13.10;99.90;;;;;;6151484;23;20387;-77
2023/09/15 05:11:36;;;;;;;16.70;9.68;;;13.10;99.90;;;;;;6152542;23;20021;-77
2023/09/15 05:14:02;;;;;;;10.80;8.20;;;13.10;99.90;;;;;;6151836;23;20005;-78
2023/09/15 05:16:28;;;;;;;14.57;8.85;;;13.10;99.90;;;;;;6151988;23;20028;-77
2023/09/15 05:18:53;;;;;;;12.48;8.43;;;13.10;99.90;;;;;;6152270;23;20005;-77
2023/09/15 05:21:19;;;;;;;10.52;8.52;;;13.10;99.90;;;;;;6151728;23;20008;-77
2023/09/15 05:23:44;;;;;;;11.20;7.88;;;13.10;99.90;;;;;;6151603;23;20009;-77
2023/09/15 05:26:10;;;;;;;10.80;8.27;;;13.10;99.90;;;;;;6151682;23;20006;-77
2023/09/15 05:28:36;;;;;;;9.73;7.57;;;13.10;99.90;;;;;;6152033;23;20006;-77
2023/09/15 05:31:01;;;;;;;14.23;9.05;;;13.10;99.90;;;;;;6151806;23;20609;-77
2023/09/15 05:33:27;;;;;;;12.80;9.65;;;13.10;99.90;;;;;;6151832;23;20061;-78
2023/09/15 05:35:57;;;;;;;9.95;8.23;;;13.10;99.90;;;;;;6151914;23;20001;-77
2023/09/15 05:38:23;;;;;;;9.90;8.27;;;13.10;99.90;;;;;;6150642;23;20047;-77
2023/09/15 05:40:49;;;;;;;11.68;8.07;;;13.10;99.90;;;;;;6151899;23;20028;-77
2023/09/15 05:43:16;;;;;;;10.30;8.40;;;13.10;99.90;;;;;;6151709;23;20037;-77
2023/09/15 05:45:42;;;;;;;11.00;8.13;;;13.10;99.90;;;;;;6151443;23;20025;-77
2023/09/15 05:48:12;;;;;;;11.35;8.25;;;13.10;99.90;;;;;;6151440;23;20009;-78
2023/09/15 05:50:38;;;;;;;9.57;8.40;;;13.20;99.90;;;;;;6151739;23;20075;-77
2023/09/15 05:53:03;;;;;;;13.45;9.77;;;13.20;99.90;;;;;;6150915;23;20431;-77
2023/09/15 05:55:29;;;;;;;11.32;9.63;;;13.20;99.90;;;;;;6151717;23;20024;-77
2023/09/15 05:57:55;;;;;;;12.15;9.35;;;13.20;99.90;;;;;;6151950;23;20048;-77
2023/09/15 06:00:21;;;;;;;12.95;8.50;;;13.30;99.90;;;;;;6151134;23;20009;-78
2023/09/15 06:02:47;;;;;;;9.77;7.80;;;13.30;99.90;;;;;;6126070;23;20009;-77
2023/09/15 06:05:13;;;;;;;13.93;8.75;;;13.30;99.90;;;;;;6151505;23;20159;-77
2023/09/15 06:07:39;;;;;;;11.35;7.68;;;13.30;99.90;;;;;;6151067;23;20339;-77
2023/09/15 06:10:06;;;;;;;14.75;8.65;;;13.40;99.90;;;;;;6151340;23;20452;-77
2023/09/15 06:12:32;;;;;;;13.80;9.35;;;13.40;99.90;;;;;;6151589;23;20459;-78
2023/09/15 06:14:58;;;;;;;12.43;8.77;;;13.40;99.90;;;;;;6151513;23;20005;-78
2023/09/15 06:17:24;;;;;;;12.57;8.57;;;13.50;99.90;;;;;;6151336;23;19998;-78
2023/09/15 06:19:50;;;;;;;11.50;8.27;;;13.50;99.90;;;;;;6151929;23;20005;-78
2023/09/15 06:22:15;;;;;;;11.45;8.52;;;13.60;99.90;;;;;;6150794;23;20077;-78
2023/09/15 06:24:41;;;;;;;12.18;8.60;;;13.60;99.90;;;;;;6151322;23;20008;-78
2023/09/15 06:27:06;;;;;;;11.40;8.77;;;13.70;99.90;;;;;;6151328;23;20068;-79
2023/09/15 06:29:32;;;;;;;14.77;10.27;;;13.70;99.90;;;;;;6151329;23;20344;-78
2023/09/15 06:31:58;;;;;;;16.23;11.23;;;13.70;99.90;;;;;;6151254;23;20431;-79
2023/09/15 06:34:24;;;;;;;15.68;10.65;;;13.80;99.90;;;;;;6150748;23;20384;-78
2023/09/15 06:36:50;;;;;;;14.00;11.10;;;13.80;99.90;;;;;;6151204;23;20005;-78
2023/09/15 06:39:16;;;;;;;14.55;8.95;;;13.90;99.90;;;;;;6151071;23;20435;-78
2023/09/15 06:41:41;;;;;;;15.70;9.20;;;13.90;99.90;;;;;;6151349;23;20002;-78
2023/09/15 06:44:10;;;;;;;14.95;11.10;;;14.00;99.90;;;;;;6150964;23;20021;-79
2023/09/15 06:46:35;;;;;;;17.75;10.70;;;14.00;99.90;;;;;;6151196;23;20001;-78
2023/09/15 06:49:01;;;;;;;12.45;11.15;;;14.00;99.90;;;;;;6150811;23;20081;-79
2023/09/15 06:51:27;;;;;;;15.40;10.93;;;14.10;99.90;;;;;;6148826;23;20037;-79
2023/09/15 06:53:53;;;;;;;13.20;9.68;;;14.10;99.90;;;;;;6149449;23;20001;-79
2023/09/15 06:56:19;;;;;;;20.02;11.27;;;14.20;99.90;;;;;;6150084;23;20005;-78
2023/09/15 06:58:44;;;;;;;12.70;9.75;;;14.20;99.90;;;;;;6149777;23;20006;-78
2023/09/15 07:01:10;;;;;;;15.02;9.38;;;14.30;99.90;;;;;;6150238;23;20428;-79
2023/09/15 07:03:35;;;;;;;13.13;9.02;;;14.30;99.90;;;;;;6150818;23;20014;-73
2023/09/15 07:06:02;;;;;;;15.02;9.93;;;14.40;99.90;;;;;;6150423;23;20013;-73
2023/09/15 07:08:27;;;;;;;11.90;8.95;;;14.40;99.90;;;;;;6150288;23;20091;-73
2023/09/15 07:10:53;;;;;;;10.38;7.95;;;14.50;99.90;;;;;;6150653;23;20002;-72
2023/09/15 07:13:18;;;;;;;10.65;8.02;;;14.60;99.90;;;;;;6150098;23;20328;-73
2023/09/15 07:15:44;;;;;;;13.48;8.43;;;14.60;99.90;;;;;;6150822;23;20018;-72
2023/09/15 07:18:10;;;;;;;11.15;7.13;;;14.60;99.90;;;;;;6149876;23;20033;-73
2023/09/15 07:20:36;;;;;;;14.32;9.30;;;14.70;99.90;;;;;;6149842;23;20002;-73
2023/09/15 07:23:03;;;;;;;13.07;9.05;;;14.70;99.90;;;;;;6149944;23;20425;-76
2023/09/15 07:25:29;;;;;;;12.60;7.97;;;14.80;99.90;;;;;;6124363;23;20457;-72
2023/09/15 07:27:55;;;;;;;10.00;8.30;;;14.90;99.90;;;;;;6150482;23;20033;-72
2023/09/15 07:30:20;;;;;;;12.68;7.55;;;14.90;99.90;;;;;;6150239;23;20029;-72
2023/09/15 07:32:46;;;;;;;11.93;8.27;;;15.00;99.90;;;;;;6150194;23;20062;-72
2023/09/15 07:35:12;;;;;;;12.23;7.10;;;15.00;99.90;;;;;;6149660;23;20028;-72
2023/09/15 07:37:38;;;;;;;10.45;7.55;;;15.10;99.90;;;;;;6149934;23;20009;-73
2023/09/15 07:40:09;;;;;;;12.40;7.40;;;15.20;99.90;;;;;;6150041;23;20005;-72
2023/09/15 07:42:36;;;;;;;9.57;7.40;;;15.20;99.90;;;;;;6150139;23;20563;-72
2023/09/15 07:45:02;;;;;;;11.90;7.82;;;15.30;99.90;;;;;;6150197;23;20045;-72
2023/09/15 07:47:28;;;;;;;10.10;7.22;;;15.40;99.90;;;;;;6149904;23;20016;-72
2023/09/15 07:49:55;;;;;;;13.50;7.50;;;15.40;99.90;;;;;;6149952;23;20072;-72
2023/09/15 07:52:22;;;;;;;9.20;7.28;;;15.50;99.90;;;;;;6149531;23;20093;-72
2023/09/15 07:54:47;;;;;;;9.40;6.07;;;15.60;99.90;;;;;;6150338;23;20717;-72
2023/09/15 07:57:14;;;;;;;10.85;6.32;;;15.70;99.90;;;;;;6149935;23;19998;-72
2023/09/15 07:59:39;;;;;;;12.40;6.45;;;15.70;99.90;;;;;;6150672;23;20396;-73
2023/09/15 08:02:05;;;;;;;10.90;6.35;;;15.80;99.90;;;;;;6151703;23;19998;-72
2023/09/15 08:04:30;;;;;;;9.00;5.85;;;15.80;99.90;;;;;;6151756;23;20033;-72
2023/09/15 08:06:56;;;;;;;10.32;6.15;;;15.90;99.90;;;;;;6152544;23;20002;-72
2023/09/15 08:09:22;;;;;;;8.57;5.75;;;15.90;99.90;;;;;;6152082;23;20072;-72
2023/09/15 08:11:47;;;;;;;9.88;6.82;;;16.10;99.90;;;;;;6152750;23;20048;-72
2023/09/15 08:14:14;;;;;;;8.35;5.32;;;16.10;99.90;;;;;;6151920;23;20005;-72
2023/09/15 08:16:39;;;;;;;7.65;6.03;;;16.20;99.90;;;;;;6152133;23;20010;-72
2023/09/15 08:19:05;;;;;;;9.60;5.80;;;16.30;99.90;;;;;;6151409;23;20029;-73
2023/09/15 08:21:31;;;;;;;10.38;7.20;;;16.30;99.90;;;;;;6152367;23;20370;-74
2023/09/15 08:23:57;;;;;;;14.48;6.85;;;16.40;99.90;;;;;;6152389;23;20029;-74
2023/09/15 08:26:23;;;;;;;8.68;5.97;;;16.50;99.90;;;;;;6151741;23;20060;-74
2023/09/15 08:28:48;;;;;;;8.77;6.10;;;16.60;99.90;;;;;;6152479;23;20056;-74
2023/09/15 08:31:14;;;;;;;9.32;6.60;;;16.60;99.90;;;;;;6151725;23;20005;-74
2023/09/15 08:33:40;;;;;;;9.02;7.03;;;16.60;99.90;;;;;;6151045;23;20013;-74
2023/09/15 08:36:05;;;;;;;8.93;6.25;;;16.70;99.90;;;;;;6151925;23;20324;-74
2023/09/15 08:38:32;;;;;;;9.82;6.65;;;16.80;99.90;;;;;;6152315;23;19997;-74
2023/09/15 08:41:29;;;;;;;9.98;7.07;;;16.80;99.90;;;;;;6152497;23;20002;-74
2023/09/15 08:43:56;;;;;;;10.90;6.63;;;17.00;99.90;;;;;;6152207;23;20013;-74
2023/09/15 08:46:22;;;;;;;9.95;6.72;;;17.00;99.90;;;;;;6150815;23;20019;-74
2023/09/15 08:48:51;;;;;;;10.23;7.15;;;17.10;99.90;;;;;;6152361;23;20009;-74
2023/09/15 08:51:17;;;;;;;9.27;5.82;;;17.20;99.90;;;;;;6152195;23;20009;-75
2023/09/15 08:53:44;;;;;;;10.50;6.53;;;17.30;99.90;;;;;;6151898;23;20006;-75
2023/09/15 08:56:09;;;;;;;9.68;7.05;;;17.30;99.90;;;;;;6151884;23;20379;-75
2023/09/15 08:58:36;;;;;;;7.47;5.28;;;17.40;99.90;;;;;;6126044;23;20090;-74
2023/09/15 09:01:07;;;;;;;7.47;5.90;;;17.50;99.90;;;;;;6150895;23;20069;-75
2023/09/15 09:03:38;;;;;;;8.63;5.85;;;17.50;99.90;;;;;;6125405;23;20006;-75
2023/09/15 09:06:09;;;;;;;12.82;7.25;;;17.60;99.80;;;;;;6151723;23;20416;-73
2023/09/15 09:08:37;;;;;;;8.20;6.38;;;17.70;99.70;;;;;;6151963;23;19999;-73
2023/09/15 09:11:03;;;;;;;10.75;6.72;;;17.70;99.50;;;;;;6151170;23;20013;-73
2023/09/15 09:13:28;;;;;;;6.57;5.65;;;17.80;99.50;;;;;;6151487;23;20006;-73
2023/09/15 09:15:54;;;;;;;10.68;6.35;;;17.90;99.50;;;;;;6151129;23;20456;-73
2023/09/15 09:18:20;;;;;;;10.63;5.43;;;18.00;99.50;;;;;;6151349;23;20005;-73
2023/09/15 09:20:50;;;;;;;7.75;6.07;;;18.00;99.20;;;;;;6126039;23;20006;-73
2023/09/15 09:23:19;;;;;;;10.57;6.82;;;18.10;99.30;;;;;;6151692;23;20005;-73
2023/09/15 09:25:46;;;;;;;9.20;5.88;;;18.20;98.90;;;;;;6152032;23;20005;-73
2023/09/15 09:28:13;;;;;;;9.73;6.50;;;18.30;98.80;;;;;;6151455;23;20001;-73
2023/09/15 09:30:38;;;;;;;9.38;5.10;;;18.40;98.80;;;;;;6151096;23;20383;-73
2023/09/15 09:33:05;;;;;;;7.85;5.50;;;18.40;98.60;;;;;;6151991;23;20048;-73
2023/09/15 09:35:30;;;;;;;10.80;6.03;;;18.50;98.40;;;;;;6151492;23;20068;-73
2023/09/15 09:37:59;;;;;;;8.00;5.45;;;18.50;98.50;;;;;;6151934;23;20088;-73
2023/09/15 09:40:25;;;;;;;7.07;5.68;;;18.60;98.20;;;;;;6151075;23;20001;-73
2023/09/15 09:42:52;;;;;;;9.35;4.90;;;18.70;97.90;;;;;;6151787;23;20029;-73
2023/09/15 09:45:25;;;;;;;12.98;6.25;;;18.80;97.90;;;;;;6150692;23;20018;-73
2023/09/15 09:47:50;;;;;;;11.95;6.35;;;18.90;97.30;;;;;;6151839;23;20009;-73
2023/09/15 09:50:16;;;;;;;8.18;5.70;;;18.90;97.30;;;;;;6151184;23;20036;-73
2023/09/15 09:52:42;;;;;;;7.25;5.97;;;19.00;97.30;;;;;;6151317;23;20362;-74
2023/09/15 09:55:09;;;;;;;7.85;4.97;;;19.10;97.30;;;;;;6151424;23;20012;-73
2023/09/15 09:57:37;;;;;;;9.52;5.47;;;19.20;97.10;;;;;;6151269;23;19998;-73
2023/09/15 10:00:04;;;;;;;11.43;5.18;;;19.30;96.90;;;;;;6151165;23;20056;-73
2023/09/15 10:02:30;;;;;;;8.40;5.68;;;19.30;96.60;;;;;;6151148;23;20371;-74
2023/09/15 10:04:56;;;;;;;7.55;4.20;;;19.40;95.90;;;;;;6151603;23;20424;-73
2023/09/15 10:07:22;;;;;;;9.32;4.20;;;19.40;95.80;;;;;;6151091;23;20347;-73
2023/09/15 10:09:47;;;;;;;5.97;5.10;;;19.40;95.40;;;;;;6151561;23;20051;-73
2023/09/15 10:12:14;;;;;;;7.40;5.50;;;19.50;95.60;;;;;;6125495;23;20005;-74
2023/09/15 10:14:40;;;;;;;7.97;4.40;;;19.60;95.60;;;;;;6150153;23;20009;-75
2023/09/15 10:17:06;;;;;;;6.70;4.07;;;19.60;95.40;;;;;;6151436;23;20002;-74
2023/09/15 10:19:32;;;;;;;5.10;3.42;;;19.70;95.20;;;;;;6124764;23;20060;-76
2023/09/15 10:22:00;;;;;;;9.10;3.92;;;19.80;95.20;;;;;;6150965;23;20005;-76
2023/09/15 10:24:26;;;;;;;7.88;3.92;;;19.80;94.80;;;;;;6150739;23;20420;-77
2023/09/15 10:26:52;;;;;;;10.55;5.15;;;19.90;94.80;;;;;;6151544;23;20017;-77
2023/09/15 10:29:18;;;;;;;6.60;4.43;;;20.00;95.00;;;;;;6150736;23;20080;-76
2023/09/15 10:31:47;;;;;;;6.68;3.25;;;20.00;94.60;;;;;;6150947;23;20005;-77
2023/09/15 10:34:14;;;;;;;6.72;4.88;;;20.10;94.50;;;;;;6150880;23;20416;-76
2023/09/15 10:36:40;;;;;;;7.10;4.20;;;20.20;94.30;;;;;;6150829;23;20324;-76
2023/09/15 10:39:13;;;;;;;6.70;3.38;;;20.10;94.20;;;;;;6151426;23;20025;-76
2023/09/15 10:41:39;;;;;;;8.10;5.22;;;20.20;94.40;;;;;;6150880;23;20001;-77
2023/09/15 10:44:04;;;;;;;6.80;5.15;;;20.10;94.10;;;;;;6150472;23;20021;-76
2023/09/15 10:46:38;;;;;;;6.80;5.28;;;20.20;93.70;;;;;;6151137;23;20010;-76
2023/09/15 10:49:16;;;;;;;;;;;20.20;93.60;;;;;;6151800;23;20029;-76
2023/09/15 10:51:51;;;;;;;10.02;5.35;;;20.10;93.70;;;;;;6150741;23;19901;-74
2023/09/15 10:54:18;;;;;;;6.32;4.25;;;20.10;93.40;;;;;;6150850;23;20387;-76
2023/09/15 10:56:44;;;;;;;9.13;5.45;;;20.10;93.60;;;;;;6149657;23;20332;-77
2023/09/15 10:59:10;;;;;;;6.13;4.97;;;20.10;93.40;;;;;;6151061;23;20313;-77
2023/09/15 11:01:36;;;;;;;7.20;5.32;;;20.10;93.30;;;;;;6151071;23;20092;-76
2023/09/15 11:04:03;;;;;;;7.18;5.63;;;20.20;93.30;;;;;;6124741;23;20016;-76
2023/09/15 11:06:29;;;;;;;6.90;4.63;;;20.20;93.10;;;;;;6150997;23;20331;-77
2023/09/15 11:08:57;;;;;;;8.73;4.47;;;20.20;93.30;;;;;;6151139;23;20384;-75
2023/09/15 11:11:23;;;;;;;6.80;4.72;;;20.20;93.50;;;;;;6150350;23;20005;-77
2023/09/15 11:13:48;;;;;;;8.10;5.18;;;20.20;93.70;;;;;;6151099;23;20450;-76
2023/09/15 11:16:14;;;;;;;8.68;6.20;;;20.20;93.70;;;;;;6151077;23;20001;-76
2023/09/15 11:18:40;;;;;;;8.55;5.43;;;20.20;93.50;;;;;;6124923;23;20503;-76
2023/09/15 11:21:12;;;;;;;6.72;4.55;;;20.20;93.50;;;;;;6151108;23;20025;-74
2023/09/15 11:23:37;;;;;;;10.07;5.40;;;20.20;93.60;;;;;;6151192;23;20012;-75
2023/09/15 11:26:05;;;;;;;6.93;5.45;;;20.20;93.50;;;;;;6149705;23;20001;-76
2023/09/15 11:28:31;;;;;;;6.68;4.93;;;20.20;93.30;;;;;;6150953;23;20496;-76
2023/09/15 11:30:57;;;;;;;8.73;5.32;;;20.30;93.40;;;;;;6124484;23;20451;-76
2023/09/15 11:33:23;;;;;;;8.05;5.20;;;20.30;93.40;;;;;;6150710;23;19997;-76
2023/09/15 11:35:49;;;;;;;8.65;5.40;;;20.40;93.40;;;;;;6151630;23;20068;-76
2023/09/15 11:38:15;;;;;;;6.43;5.00;;;20.40;93.40;;;;;;6152708;23;20007;-76
2023/09/15 11:40:47;;;;;;;7.43;4.55;;;20.30;93.40;;;;;;6152444;23;20033;-75
2023/09/15 11:43:13;;;;;;;7.13;5.43;;;20.40;93.60;;;;;;6126311;23;20005;-74
2023/09/15 11:45:40;;;;;;;6.55;4.78;;;20.40;93.40;;;;;;6152383;23;20017;-76
2023/09/15 11:48:07;;;;;;;6.75;4.47;;;20.40;93.20;;;;;;6152754;23;20084;-75
2023/09/15 11:50:33;;;;;;;9.10;4.68;;;20.50;93.60;;;;;;6152664;23;20005;-75
2023/09/15 11:52:59;;;;;;;5.07;4.38;;;20.50;93.40;;;;;;6152533;23;20340;-75
2023/09/15 11:55:25;;;;;;;7.38;4.18;;;20.50;93.60;;;;;;6151954;23;20068;-75
2023/09/15 11:57:52;;;;;;;5.13;3.53;;;20.50;93.50;;;;;;6153074;23;20009;-76
2023/09/15 12:00:22;;;;;;;6.82;3.70;;;20.50;93.50;;;;;;6126086;23;20053;-75
2023/09/15 12:02:48;;;;;;;5.85;4.15;;;20.50;93.60;;;;;;6153079;23;20002;-76
2023/09/15 12:05:15;;;;;;;5.00;3.70;;;20.60;93.60;;;;;;6125924;23;20016;-76
2023/09/15 12:07:45;;;;;;;5.95;3.55;;;20.60;93.60;;;;;;6152646;23;20002;-75
2023/09/15 12:10:18;;;;;;;6.20;3.50;;;20.60;93.70;;;;;;6125261;23;20006;-75
2023/09/15 12:12:47;;;;;;;6.97;3.58;;;20.70;93.90;;;;;;6152855;23;20475;-75
2023/09/15 12:15:16;;;;;;;5.72;3.80;;;20.70;94.00;;;;;;6152024;23;20427;-76
2023/09/15 12:17:46;;;;;;;6.28;4.63;;;20.70;93.70;;;;;;6152518;23;20012;-76
2023/09/15 12:20:12;;;;;;;7.70;4.55;;;20.80;93.60;;;;;;6152332;23;19998;-76
2023/09/15 12:22:43;;;;;;;6.60;4.13;;;20.80;93.40;;;;;;6152558;23;20223;-76
2023/09/15 12:25:10;;;;;;;10.85;5.47;;;20.80;93.50;;;;;;6151816;23;20375;-77
2023/09/15 12:27:39;;;;;;;6.53;4.00;;;20.80;93.60;;;;;;6152392;23;20009;-77
2023/09/15 12:30:05;;;;;;;6.25;3.80;;;20.80;93.70;;;;;;6152600;23;20009;-77
2023/09/15 12:32:32;;;;;;;9.23;5.88;;;20.80;93.60;;;;;;6152219;23;20017;-77
2023/09/15 12:34:58;;;;;;;8.90;5.28;;;20.80;93.30;;;;;;6152753;23;20444;-76
2023/09/15 12:37:29;;;;;;;5.15;4.13;;;20.90;93.20;;;;;;6125827;23;20005;-76
2023/09/15 12:39:54;;;;;;;7.00;4.68;;;20.80;93.30;;;;;;6152092;23;20052;-77